Time;durP1;ratioP1;P1;durP2;ratioP2;P2;SDS_P1;SDS_P2;PMS_P1;PMS_P2;Temp;Humidity;BMP_temperature;BMP_pressure;BME280_temperature;BME280_humidity;BME280_pressure;Samples;Min_cycle;Max_cycle;Signal;HPM_P1;HPM_P2
2021/01/22 00:01:35;;;;;;;0.80;0.80;;;10.90;99.80;;;;;;5026867;28;20570;-90
2021/01/22 00:04:02;;;;;;;0.90;0.60;;;10.90;99.90;;;;;;5036776;28;20490;-87
2021/01/22 00:06:29;;;;;;;0.90;0.63;;;10.90;99.90;;;;;;5029401;28;20518;-83
2021/01/22 00:08:55;;;;;;;0.60;0.60;;;10.90;99.90;;;;;;5025560;28;20973;-81
2021/01/22 00:11:21;;;;;;;1.00;0.70;;;10.90;99.90;;;;;;5034744;28;20507;-83
2021/01/22 00:13:49;;;;;;;2.63;1.20;;;10.80;99.90;;;;;;5037879;28;20458;-88
2021/01/22 00:16:15;;;;;;;1.03;0.93;;;10.70;99.90;;;;;;5031372;28;20513;-85
2021/01/22 00:18:41;;;;;;;1.10;1.00;;;10.80;99.90;;;;;;5018761;28;20533;-83
2021/01/22 00:21:08;;;;;;;0.90;0.90;;;10.80;99.90;;;;;;5017536;28;20537;-84
2021/01/22 00:23:37;;;;;;;0.80;0.70;;;10.70;99.90;;;;;;5014213;28;20541;-86
2021/01/22 00:26:04;;;;;;;1.33;0.80;;;10.70;99.90;;;;;;5014175;28;20450;-86
2021/01/22 00:28:30;;;;;;;0.93;0.70;;;10.70;99.90;;;;;;5014578;28;20457;-82
2021/01/22 00:30:58;;;;;;;1.10;0.97;;;10.70;99.90;;;;;;5013684;28;20466;-82
2021/01/22 00:33:24;;;;;;;0.77;0.70;;;10.70;99.90;;;;;;5012843;28;20454;-87
2021/01/22 00:35:50;;;;;;;1.00;0.90;;;10.70;99.90;;;;;;5013936;28;20557;-85
2021/01/22 00:38:17;;;;;;;0.97;0.87;;;10.60;99.90;;;;;;5013652;28;20486;-87
2021/01/22 00:40:43;;;;;;;0.50;0.50;;;10.50;99.90;;;;;;5014072;28;20450;-84
2021/01/22 00:43:10;;;;;;;0.80;0.73;;;10.40;99.90;;;;;;5013105;28;20505;-87
2021/01/22 00:45:36;;;;;;;0.60;0.60;;;10.50;99.90;;;;;;5013843;28;20553;-82
2021/01/22 00:48:05;;;;;;;1.70;0.80;;;10.40;99.90;;;;;;5013626;28;20461;-87
2021/01/22 00:50:31;;;;;;;1.57;1.10;;;10.40;99.90;;;;;;5014777;28;20458;-85
2021/01/22 00:52:57;;;;;;;0.50;0.50;;;10.30;99.90;;;;;;5013814;28;20956;-88
2021/01/22 00:55:24;;;;;;;0.80;0.60;;;10.20;99.90;;;;;;5014563;28;21116;-84
2021/01/22 00:57:50;;;;;;;1.03;0.67;;;10.20;99.90;;;;;;5013911;28;20490;-86
2021/01/22 01:00:18;;;;;;;0.50;0.50;;;10.20;99.90;;;;;;5013018;28;20474;-79
2021/01/22 01:02:44;;;;;;;0.90;0.90;;;10.10;99.90;;;;;;5012086;28;21010;-81
2021/01/22 01:05:12;;;;;;;1.43;1.00;;;10.10;99.90;;;;;;5013280;28;20541;-88
2021/01/22 01:07:38;;;;;;;0.90;0.60;;;10.10;99.90;;;;;;5013286;28;20946;-87
2021/01/22 01:10:06;;;;;;;1.23;1.13;;;9.90;99.90;;;;;;5014173;28;20576;-83
2021/01/22 01:12:32;;;;;;;0.50;0.50;;;9.90;99.90;;;;;;4952608;29;20472;-81
2021/01/22 01:14:59;;;;;;;0.93;0.67;;;9.90;99.90;;;;;;4936870;29;20453;-90
2021/01/22 01:17:25;;;;;;;1.10;1.00;;;10.00;99.90;;;;;;4949248;29;20512;-78
2021/01/22 01:19:51;;;;;;;4.83;0.70;;;10.00;99.90;;;;;;4952833;29;20456;-81
2021/01/22 01:22:19;;;;;;;0.90;0.60;;;10.00;99.90;;;;;;4949808;29;20818;-80
2021/01/22 01:24:45;;;;;;;0.70;0.60;;;10.00;99.90;;;;;;4953336;29;20937;-86
2021/01/22 01:27:11;;;;;;;0.93;0.80;;;10.10;99.90;;;;;;4954704;29;20968;-93
2021/01/22 01:29:38;;;;;;;0.60;0.60;;;10.10;99.90;;;;;;4953366;29;20531;-85
2021/01/22 01:32:05;;;;;;;0.80;0.80;;;10.10;99.90;;;;;;4952320;29;20569;-91
2021/01/22 01:34:31;;;;;;;1.37;0.70;;;10.00;99.90;;;;;;4954562;29;20453;-80
2021/01/22 01:36:58;;;;;;;0.67;0.60;;;10.00;99.90;;;;;;4980960;28;20544;-86
2021/01/22 01:39:25;;;;;;;0.50;0.50;;;10.10;99.90;;;;;;5013315;28;20486;-84
2021/01/22 01:41:51;;;;;;;0.50;0.50;;;10.10;99.90;;;;;;5013055;28;20819;-87
2021/01/22 01:44:18;;;;;;;0.50;0.50;;;10.00;99.90;;;;;;5013204;28;20493;-83
2021/01/22 01:46:44;;;;;;;0.63;0.63;;;10.00;99.90;;;;;;5012765;28;20478;-87
2021/01/22 01:49:11;;;;;;;0.70;0.60;;;10.00;99.90;;;;;;5012179;28;20479;-86
2021/01/22 01:51:38;;;;;;;0.63;0.60;;;10.00;99.90;;;;;;5012973;28;20456;-82
2021/01/22 01:54:05;;;;;;;0.77;0.60;;;10.00;99.90;;;;;;5014520;28;20537;-84
2021/01/22 01:56:32;;;;;;;0.77;0.63;;;10.10;99.90;;;;;;5016600;28;20446;-80
2021/01/22 01:58:59;;;;;;;1.10;1.00;;;10.20;99.90;;;;;;5016764;28;20472;-86
2021/01/22 02:01:26;;;;;;;0.70;0.70;;;10.20;99.90;;;;;;5015555;28;20934;-84
2021/01/22 02:03:54;;;;;;;0.83;0.60;;;10.20;99.90;;;;;;5017103;28;20494;-88
2021/01/22 02:06:20;;;;;;;0.73;0.70;;;10.20;99.90;;;;;;5017321;28;20459;-87
2021/01/22 02:08:47;;;;;;;0.70;0.50;;;10.20;99.90;;;;;;5016676;28;20921;-79
2021/01/22 02:11:15;;;;;;;0.80;0.57;;;10.30;99.90;;;;;;5016716;28;20546;-82
2021/01/22 02:13:44;;;;;;;0.77;0.73;;;10.30;99.90;;;;;;5016562;28;20572;-79
2021/01/22 02:16:12;;;;;;;0.47;0.47;;;10.20;99.90;;;;;;5016213;28;20990;-79
2021/01/22 02:18:40;;;;;;;0.73;0.67;;;10.20;99.90;;;;;;5015511;28;20481;-84
2021/01/22 02:21:19;;;;;;;0.77;0.70;;;10.10;99.90;;;;;;5017126;28;20489;-83
2021/01/22 02:23:47;;;;;;;0.50;0.50;;;10.20;99.90;;;;;;5016667;28;20489;-89
2021/01/22 02:26:21;;;;;;;0.77;0.57;;;10.10;99.90;;;;;;5016406;28;20451;-83
2021/01/22 02:28:53;;;;;;;0.77;0.60;;;10.20;99.90;;;;;;5016402;28;20446;-84
2021/01/22 02:31:21;;;;;;;1.33;0.70;;;10.20;99.90;;;;;;5015764;28;20589;-87
2021/01/22 02:33:48;;;;;;;1.10;0.60;;;10.20;99.90;;;;;;5014377;28;20937;-79
2021/01/22 02:36:19;;;;;;;0.90;0.67;;;10.20;99.90;;;;;;5016056;28;20537;-86
2021/01/22 02:38:48;;;;;;;0.77;0.70;;;10.20;99.90;;;;;;5015935;28;20627;-84
2021/01/22 02:41:18;;;;;;;1.20;0.70;;;10.20;99.90;;;;;;5016166;28;20915;-81
2021/01/22 02:43:47;;;;;;;0.60;0.60;;;10.10;99.90;;;;;;5015871;28;20520;-85
2021/01/22 02:46:16;;;;;;;0.70;0.60;;;10.20;99.90;;;;;;5015775;28;20553;-81
2021/01/22 02:48:46;;;;;;;1.13;0.63;;;10.20;99.90;;;;;;5014781;28;20451;-90
2021/01/22 02:51:13;;;;;;;1.13;0.80;;;10.30;99.90;;;;;;5015769;28;20581;-84
2021/01/22 02:53:40;;;;;;;1.70;0.83;;;10.30;99.90;;;;;;5015590;28;20542;-79
2021/01/22 02:56:13;;;;;;;1.87;0.90;;;10.30;99.90;;;;;;5015610;28;20463;-82
2021/01/22 02:58:49;;;;;;;1.33;0.90;;;10.40;99.90;;;;;;5015598;28;20557;-79
2021/01/22 03:01:20;;;;;;;0.90;0.90;;;10.40;99.90;;;;;;5014453;28;20470;-83
2021/01/22 03:03:53;;;;;;;4.73;1.10;;;10.40;99.90;;;;;;5014320;28;20504;-82
2021/01/22 03:06:24;;;;;;;3.43;0.97;;;10.40;99.90;;;;;;5014317;28;21002;-82
2021/01/22 03:08:54;;;;;;;0.53;0.53;;;10.30;99.90;;;;;;5015615;28;20874;-86
2021/01/22 03:11:23;;;;;;;1.17;0.90;;;10.40;99.90;;;;;;5015517;28;20962;-84
2021/01/22 03:13:51;;;;;;;1.43;0.77;;;10.40;99.80;;;;;;4981808;28;20469;-84
2021/01/22 03:16:19;;;;;;;1.00;0.80;;;10.30;99.90;;;;;;5015495;28;20842;-84
2021/01/22 03:18:57;;;;;;;5.93;1.00;;;10.20;99.90;;;;;;5014520;28;21040;-80
2021/01/22 03:21:23;;;;;;;1.63;0.93;;;10.10;99.90;;;;;;5015336;28;20541;-86
2021/01/22 03:23:50;;;;;;;2.37;1.20;;;10.10;99.90;;;;;;5015518;28;20498;-84
2021/01/22 03:26:16;;;;;;;1.43;0.60;;;10.10;99.90;;;;;;5015549;28;20461;-87
2021/01/22 03:28:42;;;;;;;2.30;1.13;;;10.00;99.90;;;;;;5014943;28;21013;-78
2021/01/22 03:31:09;;;;;;;2.63;0.87;;;10.00;99.90;;;;;;5013826;28;20919;-87
2021/01/22 03:33:36;;;;;;;1.43;0.80;;;10.00;99.90;;;;;;5013841;28;20469;-80
2021/01/22 03:36:04;;;;;;;1.10;0.70;;;10.10;99.90;;;;;;5015105;28;20462;-85
2021/01/22 03:38:30;;;;;;;2.93;1.10;;;10.00;99.90;;;;;;5014814;28;20486;-83
2021/01/22 03:40:57;;;;;;;1.47;1.17;;;10.00;99.80;;;;;;5015111;28;20486;-78
2021/01/22 03:43:23;;;;;;;3.07;0.90;;;10.00;99.90;;;;;;5015635;28;20498;-82
2021/01/22 03:45:50;;;;;;;1.00;0.90;;;9.90;99.90;;;;;;5015971;28;20537;-90
2021/01/22 03:48:16;;;;;;;2.40;0.67;;;9.90;99.90;;;;;;5013674;28;20529;-84
2021/01/22 03:50:43;;;;;;;1.73;0.53;;;10.00;99.80;;;;;;5015784;28;20541;-85
2021/01/22 03:53:10;;;;;;;2.70;0.93;;;9.90;99.90;;;;;;5014820;28;20463;-86
2021/01/22 03:55:36;;;;;;;1.17;0.70;;;9.80;99.90;;;;;;5014969;28;20504;-81
2021/01/22 03:58:03;;;;;;;7.00;2.03;;;9.70;99.90;;;;;;5015288;28;20524;-88
2021/01/22 04:00:30;;;;;;;0.63;0.60;;;9.70;99.90;;;;;;5013313;28;20892;-81
2021/01/22 04:02:56;;;;;;;3.03;0.70;;;9.70;99.90;;;;;;5014469;28;20494;-89
2021/01/22 04:05:23;;;;;;;2.30;0.93;;;9.80;99.90;;;;;;5015681;28;20537;-84
2021/01/22 04:07:50;;;;;;;6.17;1.23;;;9.70;99.90;;;;;;5015427;28;20882;-85
2021/01/22 04:10:17;;;;;;;4.90;1.13;;;9.60;99.90;;;;;;5023378;28;20450;-82
2021/01/22 04:12:43;;;;;;;2.33;1.10;;;9.60;99.90;;;;;;5027402;28;20905;-81
2021/01/22 04:15:10;;;;;;;1.10;1.00;;;9.50;99.90;;;;;;5030050;28;20478;-79
2021/01/22 04:17:37;;;;;;;1.97;1.17;;;9.50;99.90;;;;;;5027763;28;20490;-79
2021/01/22 04:20:04;;;;;;;9.60;2.10;;;9.50;99.90;;;;;;5024460;28;20529;-81
2021/01/22 04:22:31;;;;;;;2.90;0.70;;;9.50;99.90;;;;;;5027648;28;20455;-80
2021/01/22 04:24:58;;;;;;;2.97;1.00;;;9.50;99.90;;;;;;5021294;28;20522;-81
2021/01/22 04:27:24;;;;;;;2.30;0.70;;;9.60;99.90;;;;;;5034374;28;20431;-77
2021/01/22 04:29:51;;;;;;;1.20;1.10;;;9.50;99.90;;;;;;5031308;28;20458;-80
2021/01/22 04:32:17;;;;;;;5.30;1.07;;;9.50;99.90;;;;;;5024916;28;20522;-80
2021/01/22 04:34:43;;;;;;;0.93;0.83;;;9.60;99.90;;;;;;5027761;28;20518;-81
2021/01/22 04:37:09;;;;;;;1.63;0.83;;;9.60;99.90;;;;;;5027518;28;20545;-80
2021/01/22 04:39:36;;;;;;;1.20;0.70;;;9.60;99.90;;;;;;5022239;28;20515;-81
2021/01/22 04:42:05;;;;;;;1.87;1.10;;;9.60;99.90;;;;;;5028144;28;20522;-81
2021/01/22 04:44:31;;;;;;;1.93;0.80;;;9.60;99.90;;;;;;5028238;28;20494;-83
2021/01/22 04:46:59;;;;;;;3.90;0.93;;;9.50;99.90;;;;;;5027495;28;20537;-81
2021/01/22 04:49:26;;;;;;;0.90;0.77;;;9.50;99.90;;;;;;5022404;28;20494;-83
2021/01/22 04:51:56;;;;;;;0.80;0.77;;;9.50;99.90;;;;;;5022675;28;20446;-81
2021/01/22 04:54:27;;;;;;;1.80;1.20;;;9.50;99.90;;;;;;5020286;28;20497;-80
2021/01/22 04:56:57;;;;;;;0.80;0.80;;;9.60;99.90;;;;;;5022402;28;20451;-83
2021/01/22 04:59:31;;;;;;;0.77;0.77;;;9.60;99.90;;;;;;5023242;28;20609;-78
2021/01/22 05:01:59;;;;;;;1.30;0.80;;;9.70;99.80;;;;;;5026322;28;20569;-84
2021/01/22 05:04:26;;;;;;;0.80;0.80;;;9.70;99.80;;;;;;5029394;28;20499;-78
2021/01/22 05:06:52;;;;;;;1.53;1.20;;;9.70;99.80;;;;;;5024426;28;20544;-82
2021/01/22 05:09:19;;;;;;;1.03;1.00;;;9.60;99.90;;;;;;5024707;28;20490;-77
2021/01/22 05:11:52;;;;;;;2.13;1.10;;;9.70;99.90;;;;;;5023786;28;20462;-81
2021/01/22 05:14:18;;;;;;;2.57;1.13;;;9.70;99.90;;;;;;5022427;28;20498;-82
2021/01/22 05:16:59;;;;;;;1.50;1.30;;;9.70;99.90;;;;;;5004360;28;20534;-79
2021/01/22 05:19:25;;;;;;;2.57;1.57;;;9.70;99.90;;;;;;5004117;28;20482;-79
2021/01/22 05:21:52;;;;;;;6.33;2.10;;;9.70;99.90;;;;;;5010859;28;20471;-78
2021/01/22 05:24:23;;;;;;;2.10;1.23;;;9.50;99.90;;;;;;5006180;28;20577;-82
2021/01/22 05:26:59;;;;;;;2.93;1.00;;;9.50;99.90;;;;;;5008518;28;20471;-80
2021/01/22 05:29:26;;;;;;;4.53;0.70;;;9.50;99.90;;;;;;5007856;28;20459;-78
2021/01/22 05:31:53;;;;;;;4.90;0.73;;;9.40;99.90;;;;;;5018591;28;20474;-82
2021/01/22 05:34:20;;;;;;;1.10;0.60;;;9.40;99.90;;;;;;5029448;28;20925;-80
2021/01/22 05:36:48;;;;;;;0.70;0.67;;;9.60;99.90;;;;;;5030073;28;20537;-81
2021/01/22 05:39:30;;;;;;;0.90;0.80;;;9.50;99.90;;;;;;5026092;28;20953;-84
2021/01/22 05:41:57;;;;;;;1.83;0.90;;;9.50;99.90;;;;;;5026475;28;20485;-87
2021/01/22 05:44:24;;;;;;;0.60;0.60;;;9.50;99.90;;;;;;5026477;28;20497;-81
2021/01/22 05:47:00;;;;;;;1.63;1.37;;;9.50;99.90;;;;;;5027042;28;20478;-83
2021/01/22 05:49:28;;;;;;;1.43;0.60;;;9.40;99.90;;;;;;5025254;28;20482;-81
2021/01/22 05:51:55;;;;;;;1.17;0.70;;;9.40;99.90;;;;;;5031462;28;20476;-84
2021/01/22 05:54:35;;;;;;;0.63;0.63;;;9.40;99.90;;;;;;5032021;28;20470;-85
2021/01/22 05:57:02;;;;;;;0.90;0.73;;;9.40;99.90;;;;;;5027395;28;20477;-83
2021/01/22 05:59:31;;;;;;;1.73;0.80;;;9.40;99.90;;;;;;5029212;28;20457;-85
2021/01/22 06:01:58;;;;;;;0.60;0.60;;;9.40;99.90;;;;;;4998372;28;20521;-79
2021/01/22 06:04:24;;;;;;;0.60;0.60;;;9.40;99.90;;;;;;5029717;28;20580;-81
2021/01/22 06:06:51;;;;;;;1.20;0.67;;;9.50;99.90;;;;;;5029186;28;20434;-81
2021/01/22 06:09:34;;;;;;;1.63;0.83;;;9.50;99.90;;;;;;5030335;28;20455;-78
2021/01/22 06:12:03;;;;;;;1.37;0.80;;;9.60;99.90;;;;;;5027067;28;20536;-85
2021/01/22 06:14:34;;;;;;;3.37;0.80;;;9.60;99.90;;;;;;5034928;28;20446;-84
2021/01/22 06:17:06;;;;;;;0.77;0.77;;;9.50;99.90;;;;;;5035014;28;20972;-78
2021/01/22 06:19:37;;;;;;;1.10;0.80;;;9.50;99.90;;;;;;5025719;28;20474;-81
2021/01/22 06:22:11;;;;;;;1.63;1.03;;;9.50;99.90;;;;;;5024444;28;20439;-79
2021/01/22 06:24:38;;;;;;;0.60;0.50;;;9.50;99.90;;;;;;5030896;28;20504;-80
2021/01/22 06:27:07;;;;;;;0.80;0.60;;;9.60;99.90;;;;;;5022993;28;20509;-83
2021/01/22 06:29:36;;;;;;;1.13;0.50;;;9.60;99.90;;;;;;5027026;28;20995;-81
2021/01/22 06:32:04;;;;;;;1.10;0.90;;;9.70;99.90;;;;;;5025984;28;20509;-83
2021/01/22 06:34:33;;;;;;;1.30;0.70;;;9.60;99.90;;;;;;5033124;28;20541;-84
2021/01/22 06:37:01;;;;;;;0.70;0.60;;;9.60;99.90;;;;;;5034382;28;20469;-80
2021/01/22 06:39:29;;;;;;;0.60;0.60;;;9.60;99.90;;;;;;5034143;28;20454;-83
2021/01/22 06:42:00;;;;;;;0.97;0.80;;;9.50;99.90;;;;;;5035779;28;20495;-83
2021/01/22 06:44:26;;;;;;;1.70;1.20;;;9.50;99.90;;;;;;5031264;28;20522;-80
2021/01/22 06:46:53;;;;;;;1.30;0.80;;;9.60;99.90;;;;;;5028189;28;20537;-86
2021/01/22 06:49:31;;;;;;;1.00;1.00;;;9.50;99.90;;;;;;5032627;28;20466;-82
2021/01/22 06:52:10;;;;;;;1.47;0.70;;;9.50;99.90;;;;;;5035902;28;20469;-79
2021/01/22 06:55:02;;;;;;;1.13;0.90;;;9.40;99.90;;;;;;5035342;28;20443;-84
2021/01/22 06:57:29;;;;;;;2.80;0.80;;;9.40;99.90;;;;;;5035580;28;20430;-82
2021/01/22 06:59:59;;;;;;;2.03;0.80;;;9.30;99.90;;;;;;5034435;28;20433;-82
2021/01/22 07:02:38;;;;;;;1.33;0.57;;;9.40;99.90;;;;;;5032431;28;20546;-80
2021/01/22 07:05:43;;;;;;;0.87;0.70;;;9.50;99.90;;;;;;5032605;28;20975;-85
2021/01/22 07:08:12;;;;;;;0.50;0.50;;;9.60;99.90;;;;;;5037895;28;20442;-83
2021/01/22 07:10:58;;;;;;;1.60;0.73;;;9.60;99.90;;;;;;5022360;28;20454;-88
2021/01/22 07:13:35;;;;;;;1.57;0.93;;;9.60;99.90;;;;;;5015155;28;20535;-89
2021/01/22 07:16:04;;;;;;;1.70;0.50;;;9.60;99.90;;;;;;5015462;28;20541;-90
2021/01/22 07:18:33;;;;;;;1.73;0.80;;;9.60;99.90;;;;;;5014269;28;20446;-85
2021/01/22 07:21:31;;;;;;;2.30;0.67;;;9.50;99.90;;;;;;5014973;28;20446;-82
2021/01/22 07:23:59;;;;;;;1.10;0.80;;;9.50;99.90;;;;;;5002846;28;20866;-86
2021/01/22 07:26:36;;;;;;;1.07;0.80;;;9.50;99.90;;;;;;5014889;28;21005;-83
2021/01/22 07:29:14;;;;;;;0.80;0.70;;;9.50;99.90;;;;;;5019347;28;20505;-83
2021/01/22 07:31:51;;;;;;;0.70;0.70;;;9.50;99.90;;;;;;5018709;28;20470;-80
2021/01/22 07:34:49;;;;;;;0.70;0.50;;;9.60;99.90;;;;;;5014178;28;20457;-80
2021/01/22 07:37:19;;;;;;;0.80;0.50;;;9.70;99.90;;;;;;5014557;28;20545;-78
2021/01/22 07:39:46;;;;;;;1.47;0.70;;;9.70;99.90;;;;;;5014066;28;20502;-81
2021/01/22 07:42:16;;;;;;;0.70;0.70;;;9.70;99.90;;;;;;5015252;28;20875;-86
2021/01/22 07:44:45;;;;;;;0.60;0.60;;;9.70;99.90;;;;;;5015469;28;20494;-88
2021/01/22 07:47:23;;;;;;;0.70;0.70;;;9.60;99.90;;;;;;5014672;28;20458;-80
2021/01/22 07:49:55;;;;;;;1.13;0.80;;;9.70;99.90;;;;;;5014853;28;20878;-83
2021/01/22 07:52:21;;;;;;;2.60;1.00;;;9.70;99.90;;;;;;5013793;28;20482;-80
2021/01/22 07:54:48;;;;;;;0.97;0.63;;;9.60;99.90;;;;;;5014102;28;21017;-79
2021/01/22 07:57:17;;;;;;;1.33;0.83;;;9.70;99.90;;;;;;5014357;28;20865;-80
2021/01/22 07:59:44;;;;;;;0.57;0.57;;;9.70;99.90;;;;;;5013803;28;20856;-80
2021/01/22 08:02:19;;;;;;;2.10;0.57;;;9.90;99.90;;;;;;4996497;28;20555;-84
2021/01/22 08:04:46;;;;;;;2.23;1.83;;;10.00;99.90;;;;;;4996433;28;20494;-83
2021/01/22 08:07:13;;;;;;;0.80;0.80;;;10.10;99.80;;;;;;4994785;28;20978;-81
2021/01/22 08:09:51;;;;;;;1.20;1.10;;;10.10;99.80;;;;;;4994776;28;20461;-81
2021/01/22 08:12:19;;;;;;;1.00;0.87;;;10.20;99.30;;;;;;4994521;28;20442;-80
2021/01/22 08:14:45;;;;;;;1.43;0.80;;;10.30;99.10;;;;;;4994112;28;20458;-80
2021/01/22 08:17:13;;;;;;;1.97;1.20;;;10.30;99.00;;;;;;4993461;28;20458;-81
2021/01/22 08:19:39;;;;;;;2.50;2.30;;;10.40;98.80;;;;;;4997981;28;20448;-84
2021/01/22 08:22:06;;;;;;;2.07;1.30;;;10.50;98.70;;;;;;4996361;28;20958;-88
2021/01/22 08:24:33;;;;;;;0.97;0.73;;;10.50;98.80;;;;;;4995419;28;20561;-85
2021/01/22 08:27:01;;;;;;;6.30;1.10;;;10.60;98.90;;;;;;4994430;28;20463;-81
2021/01/22 08:29:29;;;;;;;2.87;0.90;;;10.60;98.70;;;;;;4995624;28;20542;-79
2021/01/22 08:31:57;;;;;;;2.07;0.80;;;10.70;98.60;;;;;;5007777;28;20561;-78
2021/01/22 08:34:24;;;;;;;2.07;0.87;;;10.80;98.40;;;;;;5014626;28;20969;-83
2021/01/22 08:36:56;;;;;;;1.17;1.00;;;10.90;98.60;;;;;;5026743;28;20455;-80
2021/01/22 08:39:22;;;;;;;0.60;0.60;;;11.00;98.40;;;;;;5022629;28;21021;-79
2021/01/22 08:41:49;;;;;;;0.70;0.70;;;11.20;98.10;;;;;;5022507;28;20546;-82
2021/01/22 08:44:15;;;;;;;1.50;1.37;;;11.30;98.50;;;;;;5018842;28;20533;-80
2021/01/22 08:46:50;;;;;;;1.60;0.93;;;11.50;97.90;;;;;;5016313;28;20489;-80
2021/01/22 08:49:17;;;;;;;1.83;1.10;;;11.50;97.80;;;;;;5013681;28;20490;-82
2021/01/22 08:51:44;;;;;;;0.70;0.70;;;11.50;97.60;;;;;;5013872;28;20455;-80
2021/01/22 08:54:12;;;;;;;1.43;0.87;;;11.60;97.40;;;;;;4976950;28;20458;-79
2021/01/22 08:56:39;;;;;;;1.23;0.93;;;11.70;97.10;;;;;;5013612;28;20516;-87
2021/01/22 08:59:07;;;;;;;1.20;0.77;;;11.90;97.10;;;;;;5013420;28;20949;-84
2021/01/22 09:01:51;;;;;;;1.33;0.50;;;12.10;97.10;;;;;;5013062;28;20547;-79
2021/01/22 09:04:22;;;;;;;2.20;0.73;;;12.20;96.40;;;;;;5011752;28;20957;-83
2021/01/22 09:06:49;;;;;;;3.37;2.20;;;12.30;96.60;;;;;;5012985;28;20455;-79
2021/01/22 09:09:16;;;;;;;0.70;0.50;;;12.40;96.40;;;;;;5012970;28;20538;-80
2021/01/22 09:11:43;;;;;;;1.57;0.83;;;12.50;96.40;;;;;;5013035;28;20461;-82
2021/01/22 09:14:11;;;;;;;13.67;11.97;;;12.50;95.90;;;;;;5013056;28;20508;-79
2021/01/22 09:16:47;;;;;;;1.17;1.03;;;12.50;95.50;;;;;;5012571;28;20508;-87
2021/01/22 09:19:14;;;;;;;1.10;1.00;;;12.70;95.70;;;;;;5011825;28;20486;-79
2021/01/22 09:21:53;;;;;;;2.10;1.00;;;12.60;96.00;;;;;;5012790;28;20456;-80
2021/01/22 09:24:20;;;;;;;5.53;1.97;;;12.50;95.90;;;;;;5012559;28;20887;-79
2021/01/22 09:26:47;;;;;;;5.70;0.83;;;12.50;95.70;;;;;;5013017;28;20453;-79
2021/01/22 09:29:13;;;;;;;1.43;0.90;;;12.50;95.80;;;;;;4978228;28;20455;-79
2021/01/22 09:31:39;;;;;;;1.13;0.80;;;12.40;95.80;;;;;;5012737;28;20471;-83
2021/01/22 09:34:06;;;;;;;2.40;0.67;;;12.30;96.10;;;;;;5011643;28;20472;-81
2021/01/22 09:36:33;;;;;;;0.57;0.50;;;12.30;96.10;;;;;;5012623;28;20901;-80
2021/01/22 09:38:59;;;;;;;1.80;1.10;;;12.20;96.20;;;;;;5012392;28;20565;-82
2021/01/22 09:41:26;;;;;;;0.67;0.67;;;12.20;96.10;;;;;;5012688;28;20483;-79
2021/01/22 09:43:53;;;;;;;3.87;1.00;;;12.30;95.90;;;;;;5012810;28;20499;-78
2021/01/22 09:46:19;;;;;;;1.90;0.80;;;12.30;95.80;;;;;;5011862;28;20843;-81
2021/01/22 09:48:46;;;;;;;1.00;0.73;;;12.40;96.30;;;;;;5011256;28;20497;-81
2021/01/22 09:51:12;;;;;;;4.30;1.23;;;12.40;96.30;;;;;;5012772;28;20830;-85
2021/01/22 09:53:39;;;;;;;3.10;1.30;;;12.60;95.50;;;;;;5012753;28;20843;-80
2021/01/22 09:56:06;;;;;;;3.00;0.83;;;12.70;95.50;;;;;;5012611;28;20563;-80
2021/01/22 09:58:32;;;;;;;1.70;0.70;;;12.70;95.70;;;;;;5012701;28;21016;-79
2021/01/22 10:00:58;;;;;;;2.20;0.93;;;12.80;95.40;;;;;;5012372;28;20539;-79
2021/01/22 10:03:25;;;;;;;1.67;1.37;;;12.70;95.80;;;;;;5011263;28;20859;-79
2021/01/22 10:05:51;;;;;;;2.10;0.80;;;12.70;95.60;;;;;;5012506;28;20552;-85
2021/01/22 10:08:20;;;;;;;2.33;1.03;;;12.70;95.40;;;;;;5012445;28;20542;-81
2021/01/22 10:10:48;;;;;;;2.67;1.10;;;12.70;95.50;;;;;;5012540;28;20462;-81
2021/01/22 10:13:14;;;;;;;1.77;0.63;;;12.80;95.70;;;;;;5012353;28;20456;-80
2021/01/22 10:15:41;;;;;;;0.93;0.70;;;12.70;95.40;;;;;;5014688;28;20455;-82
2021/01/22 10:18:07;;;;;;;5.10;1.30;;;12.80;95.80;;;;;;5016764;28;20538;-81
2021/01/22 10:20:33;;;;;;;1.00;0.90;;;12.80;96.00;;;;;;5016081;28;20486;-80
2021/01/22 10:23:00;;;;;;;2.03;0.80;;;12.90;95.10;;;;;;5016031;28;20601;-84
2021/01/22 10:25:26;;;;;;;1.00;0.90;;;12.80;95.40;;;;;;5016519;28;20562;-84
2021/01/22 10:27:53;;;;;;;2.30;1.10;;;12.90;95.10;;;;;;5016986;28;20456;-93
2021/01/22 10:30:20;;;;;;;3.07;1.27;;;12.90;95.10;;;;;;5015395;28;20555;-80
2021/01/22 10:32:46;;;;;;;2.40;0.80;;;12.90;95.00;;;;;;5014481;28;20448;-80
2021/01/22 10:35:13;;;;;;;1.07;0.87;;;12.90;94.70;;;;;;5015613;28;20951;-80
2021/01/22 10:37:40;;;;;;;1.37;1.27;;;13.00;95.10;;;;;;5015398;28;20907;-79
2021/01/22 10:40:11;;;;;;;1.27;0.90;;;13.00;95.10;;;;;;5015568;28;20495;-80
2021/01/22 10:42:37;;;;;;;1.20;0.83;;;13.20;94.60;;;;;;5015708;28;20859;-83
2021/01/22 10:45:06;;;;;;;1.23;0.90;;;13.20;94.70;;;;;;5015219;28;20500;-83
2021/01/22 10:47:32;;;;;;;1.33;1.07;;;13.20;94.60;;;;;;5014185;28;20548;-81
2021/01/22 10:49:58;;;;;;;1.30;0.80;;;13.30;94.80;;;;;;5015368;28;20546;-80
2021/01/22 10:52:25;;;;;;;4.30;1.03;;;13.30;94.80;;;;;;5012686;28;20448;-79
2021/01/22 10:54:51;;;;;;;1.30;0.90;;;13.30;95.00;;;;;;5013560;28;20460;-78
2021/01/22 10:57:18;;;;;;;1.60;1.00;;;13.30;94.50;;;;;;5014325;28;20450;-79
2021/01/22 10:59:44;;;;;;;1.30;1.10;;;13.40;94.40;;;;;;5014482;28;20218;-82
2021/01/22 11:02:12;;;;;;;1.70;0.73;;;13.40;94.60;;;;;;5009726;28;20957;-80
2021/01/22 11:04:40;;;;;;;1.90;1.70;;;13.40;94.40;;;;;;5014651;28;20918;-82
2021/01/22 11:07:07;;;;;;;2.40;1.20;;;13.50;94.70;;;;;;5014532;28;20552;-82
2021/01/22 11:09:33;;;;;;;1.40;1.17;;;13.60;94.80;;;;;;5014691;28;20454;-79
2021/01/22 11:12:04;;;;;;;2.10;0.90;;;13.70;94.60;;;;;;5014839;28;20510;-79
2021/01/22 11:14:30;;;;;;;1.00;0.70;;;13.60;95.00;;;;;;5014635;28;20497;-80
2021/01/22 11:16:56;;;;;;;0.50;0.50;;;13.70;94.60;;;;;;5014076;28;20457;-82
2021/01/22 11:19:23;;;;;;;1.10;0.73;;;13.50;93.60;;;;;;5013646;28;20449;-85
2021/01/22 11:21:50;;;;;;;2.23;1.00;;;13.60;94.20;;;;;;5014799;28;20968;-86
2021/01/22 11:24:16;;;;;;;1.50;0.80;;;13.60;94.50;;;;;;5014347;28;20522;-83
2021/01/22 11:26:43;;;;;;;0.73;0.70;;;13.60;94.40;;;;;;5013509;28;20465;-82
2021/01/22 11:29:09;;;;;;;0.93;0.73;;;13.50;94.30;;;;;;5014172;28;20595;-79
2021/01/22 11:31:35;;;;;;;1.07;0.90;;;13.50;94.70;;;;;;5013062;28;21098;-80
2021/01/22 11:34:02;;;;;;;1.70;1.00;;;13.50;94.70;;;;;;5013173;28;20509;-81
2021/01/22 11:36:29;;;;;;;0.80;0.67;;;13.50;94.30;;;;;;5014750;28;20485;-86
2021/01/22 11:38:55;;;;;;;3.63;0.80;;;13.50;94.30;;;;;;5014701;28;20973;-82
2021/01/22 11:41:22;;;;;;;1.03;0.70;;;13.40;94.30;;;;;;5014519;28;20530;-82
2021/01/22 11:43:48;;;;;;;3.37;1.87;;;13.30;94.50;;;;;;5014197;28;21046;-80
2021/01/22 11:46:14;;;;;;;3.53;1.70;;;13.20;95.00;;;;;;5014090;28;20973;-82
2021/01/22 11:48:41;;;;;;;0.97;0.70;;;13.40;94.70;;;;;;5013092;28;21019;-81
2021/01/22 11:51:07;;;;;;;1.33;0.90;;;13.40;94.60;;;;;;5014449;28;20481;-79
2021/01/22 11:53:34;;;;;;;2.10;1.63;;;13.40;95.00;;;;;;5014372;28;21080;-88
2021/01/22 11:56:01;;;;;;;2.50;0.80;;;13.60;94.40;;;;;;5014400;28;20496;-82
2021/01/22 11:58:27;;;;;;;2.40;0.90;;;13.70;94.40;;;;;;5014241;28;20552;-81
2021/01/22 12:00:54;;;;;;;1.00;0.60;;;13.70;94.20;;;;;;5013810;28;20504;-80
2021/01/22 12:03:20;;;;;;;0.83;0.70;;;13.90;93.90;;;;;;5012798;28;20465;-81
2021/01/22 12:05:46;;;;;;;0.80;0.70;;;13.90;93.70;;;;;;5013888;28;20475;-82
2021/01/22 12:08:13;;;;;;;0.77;0.63;;;14.00;93.70;;;;;;5013941;28;20844;-80
2021/01/22 12:10:40;;;;;;;0.80;0.73;;;14.00;93.90;;;;;;5013950;28;20472;-80
2021/01/22 12:13:06;;;;;;;1.37;0.90;;;14.00;94.00;;;;;;5014022;28;20454;-91
2021/01/22 12:15:33;;;;;;;0.73;0.73;;;14.10;93.90;;;;;;4980826;28;20552;-87
2021/01/22 12:18:00;;;;;;;0.80;0.70;;;13.90;93.60;;;;;;5013560;28;20545;-82
2021/01/22 12:20:27;;;;;;;1.67;0.87;;;13.90;93.20;;;;;;5014207;28;20532;-84
2021/01/22 12:22:53;;;;;;;0.77;0.60;;;13.90;93.40;;;;;;5013916;28;20501;-82
2021/01/22 12:25:20;;;;;;;2.63;0.83;;;14.00;93.30;;;;;;5013747;28;20617;-83
2021/01/22 12:27:47;;;;;;;1.33;1.23;;;14.00;93.40;;;;;;5013374;28;20972;-81
2021/01/22 12:30:14;;;;;;;2.83;0.70;;;14.00;92.70;;;;;;5012374;28;20458;-81
2021/01/22 12:32:41;;;;;;;0.80;0.73;;;14.00;92.90;;;;;;5013015;28;20931;-86
2021/01/22 12:35:08;;;;;;;1.70;0.90;;;14.00;92.80;;;;;;5014420;28;20562;-85
2021/01/22 12:37:35;;;;;;;2.00;1.57;;;14.10;92.70;;;;;;5014016;28;20640;-79
2021/01/22 12:40:01;;;;;;;0.73;0.73;;;14.10;93.10;;;;;;5017126;28;20481;-82
2021/01/22 12:42:27;;;;;;;1.10;0.80;;;14.20;93.10;;;;;;5015930;28;20493;-80
2021/01/22 12:44:55;;;;;;;0.70;0.70;;;14.40;93.00;;;;;;5014478;28;20498;-80
2021/01/22 12:47:21;;;;;;;1.53;0.90;;;14.50;91.80;;;;;;5012786;28;20453;-78
2021/01/22 12:49:47;;;;;;;1.17;1.00;;;14.80;91.90;;;;;;5014851;28;20482;-83
2021/01/22 12:52:13;;;;;;;1.87;0.90;;;14.80;91.30;;;;;;5018638;28;20505;-79
2021/01/22 12:54:40;;;;;;;0.80;0.70;;;14.90;90.70;;;;;;5015724;28;20454;-79
2021/01/22 12:57:06;;;;;;;0.70;0.60;;;14.90;91.00;;;;;;5013861;28;20557;-82